sensor_id;sensor_type;location;lat;lon;timestamp;temperature;humidity
39519;DHT22;25200;53.394;10.414;2023-06-10T00:00:13;18.50;53.30
39519;DHT22;25200;53.394;10.414;2023-06-10T00:02:40;18.40;53.40
39519;DHT22;25200;53.394;10.414;2023-06-10T00:05:07;18.40;53.80
39519;DHT22;25200;53.394;10.414;2023-06-10T00:07:36;18.40;53.70
39519;DHT22;25200;53.394;10.414;2023-06-10T00:10:06;18.30;54.00
39519;DHT22;25200;53.394;10.414;2023-06-10T00:12:32;18.30;53.80
39519;DHT22;25200;53.394;10.414;2023-06-10T00:15:04;18.30;53.70
39519;DHT22;25200;53.394;10.414;2023-06-10T00:17:30;18.20;53.80
39519;DHT22;25200;53.394;10.414;2023-06-10T00:19:56;18.20;53.40
39519;DHT22;25200;53.394;10.414;2023-06-10T00:22:23;18.10;53.50
39519;DHT22;25200;53.394;10.414;2023-06-10T00:24:49;18.20;53.50
39519;DHT22;25200;53.394;10.414;2023-06-10T00:27:16;18.10;53.70
39519;DHT22;25200;53.394;10.414;2023-06-10T00:29:42;18.10;54.10
39519;DHT22;25200;53.394;10.414;2023-06-10T00:32:08;18.00;53.60
39519;DHT22;25200;53.394;10.414;2023-06-10T00:34:33;18.00;53.90
39519;DHT22;25200;53.394;10.414;2023-06-10T00:36:59;17.90;54.30
39519;DHT22;25200;53.394;10.414;2023-06-10T00:39:25;17.90;53.90
39519;DHT22;25200;53.394;10.414;2023-06-10T00:41:50;17.90;54.00
39519;DHT22;25200;53.394;10.414;2023-06-10T00:44:16;17.90;54.20
39519;DHT22;25200;53.394;10.414;2023-06-10T00:46:42;17.90;53.60
39519;DHT22;25200;53.394;10.414;2023-06-10T00:49:08;17.90;54.00
39519;DHT22;25200;53.394;10.414;2023-06-10T00:51:35;17.80;53.80
39519;DHT22;25200;53.394;10.414;2023-06-10T00:54:01;17.80;53.80
39519;DHT22;25200;53.394;10.414;2023-06-10T00:56:27;17.70;53.90
39519;DHT22;25200;53.394;10.414;2023-06-10T00:58:54;17.70;54.20
39519;DHT22;25200;53.394;10.414;2023-06-10T01:01:20;17.70;54.00
39519;DHT22;25200;53.394;10.414;2023-06-10T01:03:46;17.60;54.10
39519;DHT22;25200;53.394;10.414;2023-06-10T01:06:29;17.60;53.70
39519;DHT22;25200;53.394;10.414;2023-06-10T01:09:28;17.60;54.10
39519;DHT22;25200;53.394;10.414;2023-06-10T01:12:05;17.60;54.00
39519;DHT22;25200;53.394;10.414;2023-06-10T01:14:38;17.50;54.10
39519;DHT22;25200;53.394;10.414;2023-06-10T01:17:10;17.50;54.20
39519;DHT22;25200;53.394;10.414;2023-06-10T01:19:36;17.50;54.30
39519;DHT22;25200;53.394;10.414;2023-06-10T01:22:02;17.40;54.40
39519;DHT22;25200;53.394;10.414;2023-06-10T01:24:28;17.40;54.10
39519;DHT22;25200;53.394;10.414;2023-06-10T01:27:00;17.30;54.90
39519;DHT22;25200;53.394;10.414;2023-06-10T01:29:33;17.30;54.40
39519;DHT22;25200;53.394;10.414;2023-06-10T01:32:18;17.30;54.20
39519;DHT22;25200;53.394;10.414;2023-06-10T01:34:47;17.20;54.20
39519;DHT22;25200;53.394;10.414;2023-06-10T01:37:17;17.20;54.40
39519;DHT22;25200;53.394;10.414;2023-06-10T01:39:45;17.20;53.80
39519;DHT22;25200;53.394;10.414;2023-06-10T01:42:11;17.20;54.70
39519;DHT22;25200;53.394;10.414;2023-06-10T01:44:39;17.10;54.40
39519;DHT22;25200;53.394;10.414;2023-06-10T01:47:05;17.10;54.40
39519;DHT22;25200;53.394;10.414;2023-06-10T01:49:31;17.00;54.20
39519;DHT22;25200;53.394;10.414;2023-06-10T01:51:57;17.00;54.30
39519;DHT22;25200;53.394;10.414;2023-06-10T01:54:22;17.00;54.40
39519;DHT22;25200;53.394;10.414;2023-06-10T01:56:48;16.90;54.60
39519;DHT22;25200;53.394;10.414;2023-06-10T01:59:13;16.90;54.70
39519;DHT22;25200;53.394;10.414;2023-06-10T02:01:39;16.90;54.80
39519;DHT22;25200;53.394;10.414;2023-06-10T02:04:05;16.80;54.40
39519;DHT22;25200;53.394;10.414;2023-06-10T02:06:31;16.70;54.80
39519;DHT22;25200;53.394;10.414;2023-06-10T02:08:56;16.80;54.30
39519;DHT22;25200;53.394;10.414;2023-06-10T02:11:22;16.70;54.60
39519;DHT22;25200;53.394;10.414;2023-06-10T02:13:48;16.70;54.80
39519;DHT22;25200;53.394;10.414;2023-06-10T02:16:13;16.80;54.60
39519;DHT22;25200;53.394;10.414;2023-06-10T02:18:42;16.70;54.80
39519;DHT22;25200;53.394;10.414;2023-06-10T02:21:08;16.70;54.20
39519;DHT22;25200;53.394;10.414;2023-06-10T02:23:34;16.70;54.80
39519;DHT22;25200;53.394;10.414;2023-06-10T02:26:00;16.70;54.90
39519;DHT22;25200;53.394;10.414;2023-06-10T02:28:27;16.60;54.80
39519;DHT22;25200;53.394;10.414;2023-06-10T02:30:53;16.60;54.60
39519;DHT22;25200;53.394;10.414;2023-06-10T02:33:19;16.60;54.40
39519;DHT22;25200;53.394;10.414;2023-06-10T02:35:45;16.60;54.50
39519;DHT22;25200;53.394;10.414;2023-06-10T02:38:11;16.50;56.20
39519;DHT22;25200;53.394;10.414;2023-06-10T02:40:36;16.50;54.50
39519;DHT22;25200;53.394;10.414;2023-06-10T02:43:02;16.50;54.60
39519;DHT22;25200;53.394;10.414;2023-06-10T02:45:28;16.50;54.80
39519;DHT22;25200;53.394;10.414;2023-06-10T02:47:53;16.50;54.70
39519;DHT22;25200;53.394;10.414;2023-06-10T02:50:19;16.40;55.20
39519;DHT22;25200;53.394;10.414;2023-06-10T02:52:45;16.40;54.30
39519;DHT22;25200;53.394;10.414;2023-06-10T02:55:11;16.30;54.90
39519;DHT22;25200;53.394;10.414;2023-06-10T02:57:36;16.30;54.30
39519;DHT22;25200;53.394;10.414;2023-06-10T03:00:02;16.30;54.60
39519;DHT22;25200;53.394;10.414;2023-06-10T03:02:34;16.30;55.20
39519;DHT22;25200;53.394;10.414;2023-06-10T03:05:02;16.30;54.30
39519;DHT22;25200;53.394;10.414;2023-06-10T03:07:28;16.20;54.60
39519;DHT22;25200;53.394;10.414;2023-06-10T03:09:54;16.20;54.70
39519;DHT22;25200;53.394;10.414;2023-06-10T03:12:19;16.20;54.80
39519;DHT22;25200;53.394;10.414;2023-06-10T03:14:45;16.20;54.70
39519;DHT22;25200;53.394;10.414;2023-06-10T03:17:10;16.10;54.70
39519;DHT22;25200;53.394;10.414;2023-06-10T03:19:36;16.10;55.50
39519;DHT22;25200;53.394;10.414;2023-06-10T03:22:14;16.10;54.40
39519;DHT22;25200;53.394;10.414;2023-06-10T03:24:40;16.00;55.00
39519;DHT22;25200;53.394;10.414;2023-06-10T03:27:12;16.00;54.90
39519;DHT22;25200;53.394;10.414;2023-06-10T03:29:39;16.00;55.70
39519;DHT22;25200;53.394;10.414;2023-06-10T03:32:05;16.00;55.10
39519;DHT22;25200;53.394;10.414;2023-06-10T03:34:31;16.00;55.10
39519;DHT22;25200;53.394;10.414;2023-06-10T03:36:58;16.00;54.80
39519;DHT22;25200;53.394;10.414;2023-06-10T03:39:24;16.00;54.30
39519;DHT22;25200;53.394;10.414;2023-06-10T03:41:50;16.00;54.70
39519;DHT22;25200;53.394;10.414;2023-06-10T03:44:16;16.00;54.70
39519;DHT22;25200;53.394;10.414;2023-06-10T03:46:42;16.00;54.80
39519;DHT22;25200;53.394;10.414;2023-06-10T03:49:08;15.90;55.00
39519;DHT22;25200;53.394;10.414;2023-06-10T03:51:35;16.00;55.00
39519;DHT22;25200;53.394;10.414;2023-06-10T03:54:01;15.90;54.50
39519;DHT22;25200;53.394;10.414;2023-06-10T03:56:26;15.90;54.80
39519;DHT22;25200;53.394;10.414;2023-06-10T03:58:54;16.00;54.70
39519;DHT22;25200;53.394;10.414;2023-06-10T04:01:20;16.00;54.70
39519;DHT22;25200;53.394;10.414;2023-06-10T04:03:47;16.00;54.70
39519;DHT22;25200;53.394;10.414;2023-06-10T04:06:14;16.00;54.50
39519;DHT22;25200;53.394;10.414;2023-06-10T04:08:40;16.00;54.50
39519;DHT22;25200;53.394;10.414;2023-06-10T04:11:06;16.00;54.90
39519;DHT22;25200;53.394;10.414;2023-06-10T04:13:32;16.00;54.90
39519;DHT22;25200;53.394;10.414;2023-06-10T04:15:58;16.00;54.60
39519;DHT22;25200;53.394;10.414;2023-06-10T04:18:23;16.10;54.90
39519;DHT22;25200;53.394;10.414;2023-06-10T04:20:49;16.20;54.70
39519;DHT22;25200;53.394;10.414;2023-06-10T04:23:15;16.30;54.90
39519;DHT22;25200;53.394;10.414;2023-06-10T04:25:40;16.30;54.70
39519;DHT22;25200;53.394;10.414;2023-06-10T04:28:06;16.40;54.70
39519;DHT22;25200;53.394;10.414;2023-06-10T04:30:32;16.50;54.60
39519;DHT22;25200;53.394;10.414;2023-06-10T04:32:57;16.50;54.80
39519;DHT22;25200;53.394;10.414;2023-06-10T04:35:23;16.50;54.40
39519;DHT22;25200;53.394;10.414;2023-06-10T04:37:52;16.60;54.50
39519;DHT22;25200;53.394;10.414;2023-06-10T04:40:17;16.60;54.40
39519;DHT22;25200;53.394;10.414;2023-06-10T04:42:43;16.70;54.60
39519;DHT22;25200;53.394;10.414;2023-06-10T04:45:09;16.60;54.60
39519;DHT22;25200;53.394;10.414;2023-06-10T04:47:34;16.70;54.50
39519;DHT22;25200;53.394;10.414;2023-06-10T04:50:01;16.70;54.60
39519;DHT22;25200;53.394;10.414;2023-06-10T04:52:27;16.70;54.50
39519;DHT22;25200;53.394;10.414;2023-06-10T04:54:53;16.80;54.70
39519;DHT22;25200;53.394;10.414;2023-06-10T04:57:19;16.70;54.50
39519;DHT22;25200;53.394;10.414;2023-06-10T04:59:46;16.80;54.50
39519;DHT22;25200;53.394;10.414;2023-06-10T05:02:11;16.80;54.60
39519;DHT22;25200;53.394;10.414;2023-06-10T05:04:37;16.80;54.60
39519;DHT22;25200;53.394;10.414;2023-06-10T05:07:03;16.80;54.70
39519;DHT22;25200;53.394;10.414;2023-06-10T05:09:29;16.80;54.60
39519;DHT22;25200;53.394;10.414;2023-06-10T05:11:55;16.80;54.80
39519;DHT22;25200;53.394;10.414;2023-06-10T05:14:21;16.80;55.00
39519;DHT22;25200;53.394;10.414;2023-06-10T05:16:48;16.80;54.50
39519;DHT22;25200;53.394;10.414;2023-06-10T05:19:13;16.90;55.00
39519;DHT22;25200;53.394;10.414;2023-06-10T05:21:39;16.80;54.90
39519;DHT22;25200;53.394;10.414;2023-06-10T05:24:05;16.90;54.70
39519;DHT22;25200;53.394;10.414;2023-06-10T05:26:31;16.90;54.80
39519;DHT22;25200;53.394;10.414;2023-06-10T05:28:58;16.90;54.90
39519;DHT22;25200;53.394;10.414;2023-06-10T05:31:24;16.90;54.80
39519;DHT22;25200;53.394;10.414;2023-06-10T05:33:50;16.90;55.10
39519;DHT22;25200;53.394;10.414;2023-06-10T05:36:15;16.90;55.00
39519;DHT22;25200;53.394;10.414;2023-06-10T05:38:41;16.90;54.90
39519;DHT22;25200;53.394;10.414;2023-06-10T05:41:06;16.90;54.80
39519;DHT22;25200;53.394;10.414;2023-06-10T05:43:32;17.00;55.50
39519;DHT22;25200;53.394;10.414;2023-06-10T05:45:58;17.00;55.30
39519;DHT22;25200;53.394;10.414;2023-06-10T05:48:23;17.00;54.90
39519;DHT22;25200;53.394;10.414;2023-06-10T05:50:49;17.00;55.10
39519;DHT22;25200;53.394;10.414;2023-06-10T05:53:15;17.00;55.10
39519;DHT22;25200;53.394;10.414;2023-06-10T05:55:44;17.00;55.00
39519;DHT22;25200;53.394;10.414;2023-06-10T05:58:11;17.10;55.40
39519;DHT22;25200;53.394;10.414;2023-06-10T06:00:38;17.10;55.30
39519;DHT22;25200;53.394;10.414;2023-06-10T06:03:06;17.10;55.10
39519;DHT22;25200;53.394;10.414;2023-06-10T06:05:31;17.10;55.40
39519;DHT22;25200;53.394;10.414;2023-06-10T06:08:01;17.10;55.00
39519;DHT22;25200;53.394;10.414;2023-06-10T06:10:27;17.20;55.30
39519;DHT22;25200;53.394;10.414;2023-06-10T06:12:53;17.20;55.20
39519;DHT22;25200;53.394;10.414;2023-06-10T06:15:18;17.20;55.50
39519;DHT22;25200;53.394;10.414;2023-06-10T06:17:44;17.20;55.30
39519;DHT22;25200;53.394;10.414;2023-06-10T06:20:10;17.20;55.50
39519;DHT22;25200;53.394;10.414;2023-06-10T06:22:36;17.30;55.20
39519;DHT22;25200;53.394;10.414;2023-06-10T06:25:01;17.30;55.40
39519;DHT22;25200;53.394;10.414;2023-06-10T06:27:28;17.30;55.40
39519;DHT22;25200;53.394;10.414;2023-06-10T06:29:53;17.30;55.40
39519;DHT22;25200;53.394;10.414;2023-06-10T06:32:19;17.40;55.50
39519;DHT22;25200;53.394;10.414;2023-06-10T06:34:46;17.40;55.40
39519;DHT22;25200;53.394;10.414;2023-06-10T06:37:11;17.40;55.50
39519;DHT22;25200;53.394;10.414;2023-06-10T06:39:37;17.40;55.60
39519;DHT22;25200;53.394;10.414;2023-06-10T06:42:03;17.50;55.60
39519;DHT22;25200;53.394;10.414;2023-06-10T06:44:28;17.50;55.70
39519;DHT22;25200;53.394;10.414;2023-06-10T06:46:54;17.50;55.80
39519;DHT22;25200;53.394;10.414;2023-06-10T06:49:20;17.50;55.50
39519;DHT22;25200;53.394;10.414;2023-06-10T06:51:45;17.50;55.60
39519;DHT22;25200;53.394;10.414;2023-06-10T06:54:11;17.60;55.70
39519;DHT22;25200;53.394;10.414;2023-06-10T06:56:37;17.60;55.60
39519;DHT22;25200;53.394;10.414;2023-06-10T06:59:03;17.60;55.50
39519;DHT22;25200;53.394;10.414;2023-06-10T07:01:33;17.70;55.50
39519;DHT22;25200;53.394;10.414;2023-06-10T07:04:00;17.70;55.70
39519;DHT22;25200;53.394;10.414;2023-06-10T07:06:25;17.70;55.50
39519;DHT22;25200;53.394;10.414;2023-06-10T07:08:51;17.70;55.50
39519;DHT22;25200;53.394;10.414;2023-06-10T07:11:16;17.80;55.30
39519;DHT22;25200;53.394;10.414;2023-06-10T07:13:43;17.80;55.80
39519;DHT22;25200;53.394;10.414;2023-06-10T07:16:08;17.80;55.90
39519;DHT22;25200;53.394;10.414;2023-06-10T07:18:34;17.90;55.90
39519;DHT22;25200;53.394;10.414;2023-06-10T07:21:00;17.90;55.90
39519;DHT22;25200;53.394;10.414;2023-06-10T07:23:25;17.90;56.30
39519;DHT22;25200;53.394;10.414;2023-06-10T07:25:51;18.00;55.90
39519;DHT22;25200;53.394;10.414;2023-06-10T07:28:17;18.00;55.70
39519;DHT22;25200;53.394;10.414;2023-06-10T07:30:42;18.00;55.90
39519;DHT22;25200;53.394;10.414;2023-06-10T07:33:08;18.10;55.90
39519;DHT22;25200;53.394;10.414;2023-06-10T07:35:35;18.10;56.30
39519;DHT22;25200;53.394;10.414;2023-06-10T07:38:01;18.20;56.40
39519;DHT22;25200;53.394;10.414;2023-06-10T07:40:27;18.20;56.80
39519;DHT22;25200;53.394;10.414;2023-06-10T07:42:52;18.30;56.40
39519;DHT22;25200;53.394;10.414;2023-06-10T07:45:18;18.30;56.50
39519;DHT22;25200;53.394;10.414;2023-06-10T07:47:44;18.30;56.30
39519;DHT22;25200;53.394;10.414;2023-06-10T07:50:10;18.40;56.70
39519;DHT22;25200;53.394;10.414;2023-06-10T07:52:35;18.40;57.10
39519;DHT22;25200;53.394;10.414;2023-06-10T07:55:02;18.40;56.40
39519;DHT22;25200;53.394;10.414;2023-06-10T07:57:28;18.50;56.70
39519;DHT22;25200;53.394;10.414;2023-06-10T07:59:53;18.50;56.40
39519;DHT22;25200;53.394;10.414;2023-06-10T08:02:20;18.60;56.90
39519;DHT22;25200;53.394;10.414;2023-06-10T08:04:46;18.70;57.00
39519;DHT22;25200;53.394;10.414;2023-06-10T08:07:11;18.70;56.80
39519;DHT22;25200;53.394;10.414;2023-06-10T08:09:37;18.80;56.80
39519;DHT22;25200;53.394;10.414;2023-06-10T08:12:03;18.80;56.40
39519;DHT22;25200;53.394;10.414;2023-06-10T08:14:29;18.90;56.90
39519;DHT22;25200;53.394;10.414;2023-06-10T08:16:54;19.00;57.10
39519;DHT22;25200;53.394;10.414;2023-06-10T08:19:20;19.00;56.30
39519;DHT22;25200;53.394;10.414;2023-06-10T08:21:45;19.10;56.50
39519;DHT22;25200;53.394;10.414;2023-06-10T08:24:11;19.10;56.60
39519;DHT22;25200;53.394;10.414;2023-06-10T08:26:39;19.20;56.50
39519;DHT22;25200;53.394;10.414;2023-06-10T08:29:05;19.20;56.40
39519;DHT22;25200;53.394;10.414;2023-06-10T08:31:31;19.30;56.50
39519;DHT22;25200;53.394;10.414;2023-06-10T08:33:56;19.40;56.50
39519;DHT22;25200;53.394;10.414;2023-06-10T08:36:22;19.40;56.30
39519;DHT22;25200;53.394;10.414;2023-06-10T08:38:47;19.50;56.20
39519;DHT22;25200;53.394;10.414;2023-06-10T08:41:17;19.50;56.30
39519;DHT22;25200;53.394;10.414;2023-06-10T08:44:01;19.60;56.50
39519;DHT22;25200;53.394;10.414;2023-06-10T08:46:38;19.70;56.50
39519;DHT22;25200;53.394;10.414;2023-06-10T08:49:06;19.80;56.90
39519;DHT22;25200;53.394;10.414;2023-06-10T08:51:35;19.80;56.70
39519;DHT22;25200;53.394;10.414;2023-06-10T08:54:05;19.90;56.60
39519;DHT22;25200;53.394;10.414;2023-06-10T08:56:38;20.00;56.40
39519;DHT22;25200;53.394;10.414;2023-06-10T08:59:05;20.10;56.80
39519;DHT22;25200;53.394;10.414;2023-06-10T09:01:31;20.20;56.60
39519;DHT22;25200;53.394;10.414;2023-06-10T09:03:59;20.40;56.70
39519;DHT22;25200;53.394;10.414;2023-06-10T09:06:25;20.60;56.50
39519;DHT22;25200;53.394;10.414;2023-06-10T09:08:51;20.90;57.00
39519;DHT22;25200;53.394;10.414;2023-06-10T09:11:17;21.20;57.00
39519;DHT22;25200;53.394;10.414;2023-06-10T09:13:43;21.50;56.90
39519;DHT22;25200;53.394;10.414;2023-06-10T09:16:09;21.80;56.50
39519;DHT22;25200;53.394;10.414;2023-06-10T09:18:37;22.20;56.40
39519;DHT22;25200;53.394;10.414;2023-06-10T09:21:03;22.50;56.20
39519;DHT22;25200;53.394;10.414;2023-06-10T09:23:29;22.90;55.60
39519;DHT22;25200;53.394;10.414;2023-06-10T09:25:58;23.30;55.60
39519;DHT22;25200;53.394;10.414;2023-06-10T09:28:24;23.70;55.60
39519;DHT22;25200;53.394;10.414;2023-06-10T09:30:50;24.00;55.50
39519;DHT22;25200;53.394;10.414;2023-06-10T09:33:26;24.20;55.40
39519;DHT22;25200;53.394;10.414;2023-06-10T09:35:52;24.40;55.00
39519;DHT22;25200;53.394;10.414;2023-06-10T09:38:22;24.70;54.90
39519;DHT22;25200;53.394;10.414;2023-06-10T09:40:52;24.90;54.60
39519;DHT22;25200;53.394;10.414;2023-06-10T09:43:18;25.10;54.30
39519;DHT22;25200;53.394;10.414;2023-06-10T09:45:43;25.30;54.30
39519;DHT22;25200;53.394;10.414;2023-06-10T09:48:09;25.50;54.30
39519;DHT22;25200;53.394;10.414;2023-06-10T09:50:42;25.80;54.00
39519;DHT22;25200;53.394;10.414;2023-06-10T09:53:09;26.10;54.00
39519;DHT22;25200;53.394;10.414;2023-06-10T09:55:41;26.30;53.90
39519;DHT22;25200;53.394;10.414;2023-06-10T09:58:07;26.50;53.60
39519;DHT22;25200;53.394;10.414;2023-06-10T10:00:33;26.70;53.60
39519;DHT22;25200;53.394;10.414;2023-06-10T10:03:00;27.00;53.60
39519;DHT22;25200;53.394;10.414;2023-06-10T10:05:26;27.20;53.20
39519;DHT22;25200;53.394;10.414;2023-06-10T10:07:53;27.30;53.20
39519;DHT22;25200;53.394;10.414;2023-06-10T10:10:20;27.50;53.20
39519;DHT22;25200;53.394;10.414;2023-06-10T10:12:47;27.80;53.20
39519;DHT22;25200;53.394;10.414;2023-06-10T10:15:16;28.10;52.80
39519;DHT22;25200;53.394;10.414;2023-06-10T10:18:05;28.30;53.00
39519;DHT22;25200;53.394;10.414;2023-06-10T10:20:33;28.50;52.70
39519;DHT22;25200;53.394;10.414;2023-06-10T10:23:02;28.80;52.80
39519;DHT22;25200;53.394;10.414;2023-06-10T10:25:32;28.90;52.10
39519;DHT22;25200;53.394;10.414;2023-06-10T10:28:12;29.10;52.50
39519;DHT22;25200;53.394;10.414;2023-06-10T10:30:47;29.40;51.90
39519;DHT22;25200;53.394;10.414;2023-06-10T10:33:22;29.70;52.50
39519;DHT22;25200;53.394;10.414;2023-06-10T10:35:53;30.00;52.80
39519;DHT22;25200;53.394;10.414;2023-06-10T10:38:19;30.30;52.50
39519;DHT22;25200;53.394;10.414;2023-06-10T10:40:47;30.50;52.40
39519;DHT22;25200;53.394;10.414;2023-06-10T10:43:13;30.70;52.00
39519;DHT22;25200;53.394;10.414;2023-06-10T10:45:40;30.80;52.10
39519;DHT22;25200;53.394;10.414;2023-06-10T10:48:08;31.00;51.90
39519;DHT22;25200;53.394;10.414;2023-06-10T10:50:37;31.20;52.10
39519;DHT22;25200;53.394;10.414;2023-06-10T10:53:04;31.40;52.20
39519;DHT22;25200;53.394;10.414;2023-06-10T10:55:30;31.70;52.00
39519;DHT22;25200;53.394;10.414;2023-06-10T10:58:06;31.80;52.00
39519;DHT22;25200;53.394;10.414;2023-06-10T11:00:43;32.00;51.90
39519;DHT22;25200;53.394;10.414;2023-06-10T11:03:13;32.30;51.90
39519;DHT22;25200;53.394;10.414;2023-06-10T11:05:47;32.60;51.80
39519;DHT22;25200;53.394;10.414;2023-06-10T11:08:15;32.80;51.80
39519;DHT22;25200;53.394;10.414;2023-06-10T11:10:51;32.90;50.00
39519;DHT22;25200;53.394;10.414;2023-06-10T11:13:20;33.10;51.50
39519;DHT22;25200;53.394;10.414;2023-06-10T11:15:50;33.30;51.60
39519;DHT22;25200;53.394;10.414;2023-06-10T11:18:28;33.50;51.40
39519;DHT22;25200;53.394;10.414;2023-06-10T11:21:00;33.60;50.70
39519;DHT22;25200;53.394;10.414;2023-06-10T11:29:03;34.00;50.30
39519;DHT22;25200;53.394;10.414;2023-06-10T11:31:43;34.10;51.00
39519;DHT22;25200;53.394;10.414;2023-06-10T11:34:09;34.30;50.70
39519;DHT22;25200;53.394;10.414;2023-06-10T11:36:40;34.50;50.00
39519;DHT22;25200;53.394;10.414;2023-06-10T11:39:08;34.60;49.50
39519;DHT22;25200;53.394;10.414;2023-06-10T11:41:35;34.60;49.90
39519;DHT22;25200;53.394;10.414;2023-06-10T11:44:03;34.80;50.40
39519;DHT22;25200;53.394;10.414;2023-06-10T11:46:29;34.90;50.40
39519;DHT22;25200;53.394;10.414;2023-06-10T11:48:57;34.90;49.80
39519;DHT22;25200;53.394;10.414;2023-06-10T11:51:26;35.10;50.20
39519;DHT22;25200;53.394;10.414;2023-06-10T11:53:53;35.20;49.90
39519;DHT22;25200;53.394;10.414;2023-06-10T11:56:23;35.30;50.00
39519;DHT22;25200;53.394;10.414;2023-06-10T11:58:54;35.40;49.60
39519;DHT22;25200;53.394;10.414;2023-06-10T12:01:26;35.60;47.90
39519;DHT22;25200;53.394;10.414;2023-06-10T12:04:06;35.70;49.50
39519;DHT22;25200;53.394;10.414;2023-06-10T12:06:48;35.80;49.40
39519;DHT22;25200;53.394;10.414;2023-06-10T12:09:28;35.80;48.90
39519;DHT22;25200;53.394;10.414;2023-06-10T12:15:02;36.20;49.40
39519;DHT22;25200;53.394;10.414;2023-06-10T12:19:56;36.40;49.30
39519;DHT22;25200;53.394;10.414;2023-06-10T12:22:22;36.60;49.90
39519;DHT22;25200;53.394;10.414;2023-06-10T12:24:58;36.80;49.60
39519;DHT22;25200;53.394;10.414;2023-06-10T12:27:28;37.10;49.30
39519;DHT22;25200;53.394;10.414;2023-06-10T12:29:55;37.30;48.60
39519;DHT22;25200;53.394;10.414;2023-06-10T12:32:44;37.40;49.10
39519;DHT22;25200;53.394;10.414;2023-06-10T12:35:12;37.50;48.40
39519;DHT22;25200;53.394;10.414;2023-06-10T12:37:41;37.60;49.00
39519;DHT22;25200;53.394;10.414;2023-06-10T12:40:08;37.70;48.60
39519;DHT22;25200;53.394;10.414;2023-06-10T12:42:37;37.70;48.20
39519;DHT22;25200;53.394;10.414;2023-06-10T12:45:04;37.80;48.80
39519;DHT22;25200;53.394;10.414;2023-06-10T12:47:35;38.00;48.40
39519;DHT22;25200;53.394;10.414;2023-06-10T12:50:04;38.10;48.50
39519;DHT22;25200;53.394;10.414;2023-06-10T12:52:30;38.20;48.50
39519;DHT22;25200;53.394;10.414;2023-06-10T12:54:56;38.30;47.80
39519;DHT22;25200;53.394;10.414;2023-06-10T12:57:22;38.50;48.10
39519;DHT22;25200;53.394;10.414;2023-06-10T12:59:48;38.60;48.60
39519;DHT22;25200;53.394;10.414;2023-06-10T13:02:22;38.80;47.30
39519;DHT22;25200;53.394;10.414;2023-06-10T13:04:50;38.90;48.50
39519;DHT22;25200;53.394;10.414;2023-06-10T13:07:16;38.90;48.20
39519;DHT22;25200;53.394;10.414;2023-06-10T13:09:42;38.90;47.50
39519;DHT22;25200;53.394;10.414;2023-06-10T13:12:08;39.00;47.70
39519;DHT22;25200;53.394;10.414;2023-06-10T13:14:35;39.00;47.70
39519;DHT22;25200;53.394;10.414;2023-06-10T13:17:05;39.10;46.50
39519;DHT22;25200;53.394;10.414;2023-06-10T13:19:34;39.10;47.80
39519;DHT22;25200;53.394;10.414;2023-06-10T13:21:59;39.30;47.10
39519;DHT22;25200;53.394;10.414;2023-06-10T13:24:25;39.40;47.50
39519;DHT22;25200;53.394;10.414;2023-06-10T13:26:51;39.50;47.40
39519;DHT22;25200;53.394;10.414;2023-06-10T13:29:17;39.60;46.80
39519;DHT22;25200;53.394;10.414;2023-06-10T13:31:43;39.60;47.70
39519;DHT22;25200;53.394;10.414;2023-06-10T13:34:08;39.70;47.70
39519;DHT22;25200;53.394;10.414;2023-06-10T13:36:34;39.80;47.60
39519;DHT22;25200;53.394;10.414;2023-06-10T13:39:00;39.80;46.20
39519;DHT22;25200;53.394;10.414;2023-06-10T13:41:25;39.80;47.50
39519;DHT22;25200;53.394;10.414;2023-06-10T13:43:54;39.90;47.90
39519;DHT22;25200;53.394;10.414;2023-06-10T13:46:20;39.90;46.00
39519;DHT22;25200;53.394;10.414;2023-06-10T13:48:47;39.90;46.20
39519;DHT22;25200;53.394;10.414;2023-06-10T13:51:13;39.80;44.00
39519;DHT22;25200;53.394;10.414;2023-06-10T13:53:38;39.70;46.60
39519;DHT22;25200;53.394;10.414;2023-06-10T13:56:04;39.70;46.90
39519;DHT22;25200;53.394;10.414;2023-06-10T13:58:30;39.70;46.30
39519;DHT22;25200;53.394;10.414;2023-06-10T14:00:56;39.70;45.10
39519;DHT22;25200;53.394;10.414;2023-06-10T14:03:23;39.60;45.60
39519;DHT22;25200;53.394;10.414;2023-06-10T14:05:49;39.70;46.70
39519;DHT22;25200;53.394;10.414;2023-06-10T14:08:15;39.70;46.50
39519;DHT22;25200;53.394;10.414;2023-06-10T14:10:41;39.80;47.20
39519;DHT22;25200;53.394;10.414;2023-06-10T14:13:06;40.00;45.80
39519;DHT22;25200;53.394;10.414;2023-06-10T14:15:32;39.90;45.60
39519;DHT22;25200;53.394;10.414;2023-06-10T14:17:58;39.70;45.60
39519;DHT22;25200;53.394;10.414;2023-06-10T14:20:24;39.40;45.10
39519;DHT22;25200;53.394;10.414;2023-06-10T14:22:52;39.20;44.80
39519;DHT22;25200;53.394;10.414;2023-06-10T14:25:17;39.20;46.00
39519;DHT22;25200;53.394;10.414;2023-06-10T14:27:43;39.30;44.50
39519;DHT22;25200;53.394;10.414;2023-06-10T14:30:09;39.30;45.80
39519;DHT22;25200;53.394;10.414;2023-06-10T14:32:35;39.30;44.20
39519;DHT22;25200;53.394;10.414;2023-06-10T14:35:00;39.00;44.10
39519;DHT22;25200;53.394;10.414;2023-06-10T14:37:26;38.70;45.10
39519;DHT22;25200;53.394;10.414;2023-06-10T14:39:52;38.40;45.00
39519;DHT22;25200;53.394;10.414;2023-06-10T14:42:17;37.90;45.10
39519;DHT22;25200;53.394;10.414;2023-06-10T14:44:43;37.40;44.60
39519;DHT22;25200;53.394;10.414;2023-06-10T14:47:09;37.00;45.40
39519;DHT22;25200;53.394;10.414;2023-06-10T14:49:34;36.80;45.40
39519;DHT22;25200;53.394;10.414;2023-06-10T14:52:00;36.70;46.30
39519;DHT22;25200;53.394;10.414;2023-06-10T14:54:26;36.70;46.30
39519;DHT22;25200;53.394;10.414;2023-06-10T14:56:51;36.60;46.40
39519;DHT22;25200;53.394;10.414;2023-06-10T14:59:17;36.50;46.70
39519;DHT22;25200;53.394;10.414;2023-06-10T15:01:42;36.50;46.40
39519;DHT22;25200;53.394;10.414;2023-06-10T15:04:08;36.30;46.60
39519;DHT22;25200;53.394;10.414;2023-06-10T15:06:34;36.10;46.50
39519;DHT22;25200;53.394;10.414;2023-06-10T15:08:59;35.70;46.50
39519;DHT22;25200;53.394;10.414;2023-06-10T15:11:25;35.50;46.70
39519;DHT22;25200;53.394;10.414;2023-06-10T15:13:51;35.20;46.80
39519;DHT22;25200;53.394;10.414;2023-06-10T15:16:16;35.00;46.70
39519;DHT22;25200;53.394;10.414;2023-06-10T15:18:42;34.80;47.20
39519;DHT22;25200;53.394;10.414;2023-06-10T15:21:08;34.60;47.20
39519;DHT22;25200;53.394;10.414;2023-06-10T15:23:33;34.40;47.30
39519;DHT22;25200;53.394;10.414;2023-06-10T15:25:59;34.30;47.40